Santo Hipolito, Brazil
Current Conditions -  °F | °C
As of 6:00 PM on Tuesday 27 Jan 2015 (Local Time) from SBLS Reporting Station
Thunderstorm Thunderstorm  
Wind Chill: 79°   Ceiling: Unl
Heat Index: 81°   Visibility: 6mi
Dew Point: 64°   Wind: 3mph
Humidity: 61%   Direction: 100°E
Pressure: 30.03"   Gusts: NA
Location:  18.3°S, 44.22°W
Report Text: SBLS 272000Z 10003KT 9999 TS SCT035 FEW040CB SCT100 26/18 Q1017
Loading
Personal Weather Stations






























Interactive Weather Map New forecast layout! Learn more

10-Day Weather Forecast

Advertisements
Track Severe Weather on mobile